Terminal Aerodrome Forecast
Issued by NWS

Home | Current Version | Previous Version | Graphics & Text | Print | Product List | Glossary On
Versions: 1 2 3 4 5 6 7 8 9 10 11 12 13 14
000
FTUS45 KGGW 261900 AAA
TAFSDY
TAF AMD
KSDY 261940Z 2620/2718 VRB05KT P6SM FEW008 BKN060
     FM270000 VRB06KT P6SM SCT020 BKN150
     FM270300 VRB03KT 5SM BR OVC007
      AMD LTD TO CLD VIS AND WIND=

USA.gov is the U.S. government's official web portal to all federal, state and local government web resources and services.